Time,TemperatureF,DewpointF,PressureIn,WindDirection,WindDirectionDegrees,WindSpeedMPH,WindSpeedGustMPH,Humidity,HourlyPrecipIn,Conditions,Clouds,dailyrainin,SolarRadiationWatts/m^2,SoftwareType,DateUTC
2013-07-16 00:06:00,64.6,30.4,29.43,North,-999,-999.0,-999.0,5,0.00,,,-99.99,0.0,Linux-Irox,2013-07-16 07:06:00,
2013-07-16 00:16:00,64.2,30.0,29.43,North,-999,-999.0,-999.0,5,0.00,,,-99.99,0.0,Linux-Irox,2013-07-16 07:16:00,
2013-07-16 00:26:00,64.2,30.0,29.44,North,-999,-999.0,-999.0,5,0.00,,,-99.99,0.0,Linux-Irox,2013-07-16 07:26:00,
2013-07-16 00:36:00,63.9,29.7,29.44,North,-999,-999.0,-999.0,5,0.00,,,-99.99,0.0,Linux-Irox,2013-07-16 07:36:00,
2013-07-16 00:46:00,63.7,29.5,29.43,North,-999,-999.0,-999.0,5,0.00,,,-99.99,0.0,Linux-Irox,2013-07-16 07:46:00,
2013-07-16 00:56:00,63.5,29.3,29.43,North,-999,-999.0,-999.0,5,0.00,,,-99.99,0.0,Linux-Irox,2013-07-16 07:56:00,
2013-07-16 01:06:00,63.7,29.5,29.44,North,-999,-999.0,-999.0,5,0.00,,,-99.99,0.0,Linux-Irox,2013-07-16 08:06:00,
2013-07-16 01:16:00,64.0,29.8,29.44,North,-999,-999.0,-999.0,5,0.00,,,-99.99,0.0,Linux-Irox,2013-07-16 08:16:00,
2013-07-16 01:26:00,63.9,29.7,29.43,North,-999,-999.0,-999.0,5,0.00,,,-99.99,0.0,Linux-Irox,2013-07-16 08:26:00,
2013-07-16 01:36:00,64.2,30.0,29.43,North,-999,-999.0,-999.0,5,0.00,,,-99.99,0.0,Linux-Irox,2013-07-16 08:36:00,
2013-07-16 01:46:00,64.0,29.8,29.43,North,-999,-999.0,-999.0,5,0.00,,,-99.99,0.0,Linux-Irox,2013-07-16 08:46:00,
2013-07-16 01:56:00,64.0,29.8,29.43,North,-999,-999.0,-999.0,5,0.00,,,-99.99,0.0,Linux-Irox,2013-07-16 08:56:00,
2013-07-16 02:06:00,64.0,29.8,29.43,North,-999,-999.0,-999.0,5,0.00,,,-99.99,0.0,Linux-Irox,2013-07-16 09:06:00,
2013-07-16 02:16:00,63.9,29.7,29.43,North,-999,-999.0,-999.0,5,0.00,,,-99.99,0.0,Linux-Irox,2013-07-16 09:16:00,
2013-07-16 02:26:00,63.3,29.1,29.43,North,-999,-999.0,-999.0,5,0.00,,,-99.99,0.0,Linux-Irox,2013-07-16 09:26:00,
2013-07-16 02:36:00,63.3,29.1,29.43,North,-999,-999.0,-999.0,5,0.00,,,-99.99,0.0,Linux-Irox,2013-07-16 09:36:00,
2013-07-16 02:46:00,63.1,28.9,29.43,North,-999,-999.0,-999.0,5,0.00,,,-99.99,0.0,Linux-Irox,2013-07-16 09:46:00,
2013-07-16 02:56:00,63.0,28.8,29.43,North,-999,-999.0,-999.0,5,0.00,,,-99.99,0.0,Linux-Irox,2013-07-16 09:56:00,
2013-07-16 03:06:00,62.6,28.4,29.43,North,-999,-999.0,-999.0,5,0.00,,,-99.99,0.0,Linux-Irox,2013-07-16 10:06:00,
2013-07-16 03:16:00,62.4,28.2,29.43,North,-999,-999.0,-999.0,5,0.00,,,-99.99,0.0,Linux-Irox,2013-07-16 10:16:00,
2013-07-16 03:26:00,61.9,27.7,29.43,North,-999,-999.0,-999.0,5,0.00,,,-99.99,0.0,Linux-Irox,2013-07-16 10:26:00,
2013-07-16 03:36:00,61.7,27.5,29.43,North,-999,-999.0,-999.0,5,0.00,,,-99.99,0.0,Linux-Irox,2013-07-16 10:36:00,
2013-07-16 03:46:00,61.7,27.5,29.43,North,-999,-999.0,-999.0,5,0.00,,,-99.99,0.0,Linux-Irox,2013-07-16 10:46:00,
2013-07-16 03:56:00,61.5,27.3,29.43,North,-999,-999.0,-999.0,5,0.00,,,-99.99,0.0,Linux-Irox,2013-07-16 10:56:00,
2013-07-16 04:06:00,61.5,27.3,29.43,North,-999,-999.0,-999.0,5,0.00,,,-99.99,0.0,Linux-Irox,2013-07-16 11:06:00,
2013-07-16 04:16:00,61.9,27.7,29.43,North,-999,-999.0,-999.0,5,0.00,,,-99.99,0.0,Linux-Irox,2013-07-16 11:16:00,
2013-07-16 04:26:00,62.1,27.9,29.43,North,-999,-999.0,-999.0,5,0.00,,,-99.99,0.0,Linux-Irox,2013-07-16 11:26:00,
2013-07-16 04:36:00,61.5,27.3,29.43,North,-999,-999.0,-999.0,5,0.00,,,-99.99,0.0,Linux-Irox,2013-07-16 11:36:00,
2013-07-16 04:46:00,61.2,27.0,29.43,North,-999,-999.0,-999.0,5,0.00,,,-99.99,0.0,Linux-Irox,2013-07-16 11:46:00,
2013-07-16 04:56:00,60.3,26.1,29.43,North,-999,-999.0,-999.0,5,0.00,,,-99.99,0.0,Linux-Irox,2013-07-16 11:56:00,
2013-07-16 05:06:00,59.7,25.5,29.44,North,-999,-999.0,-999.0,5,0.00,,,-99.99,0.0,Linux-Irox,2013-07-16 12:06:00,
2013-07-16 05:16:00,59.5,25.3,29.44,North,-999,-999.0,-999.0,5,0.00,,,-99.99,0.0,Linux-Irox,2013-07-16 12:16:00,
2013-07-16 05:26:00,59.5,25.3,29.45,North,-999,-999.0,-999.0,5,0.00,,,-99.99,0.0,Linux-Irox,2013-07-16 12:26:00,
2013-07-16 05:36:00,59.4,25.2,29.45,North,-999,-999.0,-999.0,5,0.00,,,-99.99,0.0,Linux-Irox,2013-07-16 12:36:00,
2013-07-16 05:46:00,59.2,25.0,29.45,North,-999,-999.0,-999.0,5,0.00,,,-99.99,0.0,Linux-Irox,2013-07-16 12:46:00,
2013-07-16 05:56:00,59.2,25.0,29.45,North,-999,-999.0,-999.0,5,0.00,,,-99.99,0.0,Linux-Irox,2013-07-16 12:56:00,
2013-07-16 06:06:00,59.2,25.0,29.45,North,-999,-999.0,-999.0,5,0.00,,,-99.99,0.0,Linux-Irox,2013-07-16 13:06:00,
2013-07-16 06:16:00,59.7,25.5,29.45,North,-999,-999.0,-999.0,5,0.00,,,-99.99,0.0,Linux-Irox,2013-07-16 13:16:00,
2013-07-16 06:26:00,59.7,25.5,29.45,North,-999,-999.0,-999.0,5,0.00,,,-99.99,0.0,Linux-Irox,2013-07-16 13:26:00,
2013-07-16 06:36:00,59.9,25.7,29.45,North,-999,-999.0,-999.0,5,0.00,,,-99.99,0.0,Linux-Irox,2013-07-16 13:36:00,
2013-07-16 06:46:00,59.9,25.7,29.45,North,-999,-999.0,-999.0,5,0.00,,,-99.99,0.0,Linux-Irox,2013-07-16 13:46:00,
2013-07-16 06:56:00,62.6,28.4,29.45,North,-999,-999.0,-999.0,5,0.00,,,-99.99,0.0,Linux-Irox,2013-07-16 13:56:00,
2013-07-16 07:01:00,65.8,31.6,29.46,North,-999,-999.0,-999.0,5,0.00,,,-99.99,0.0,Linux-Irox,2013-07-16 14:01:00,
2013-07-16 07:06:00,71.8,37.6,29.46,North,-999,-999.0,-999.0,5,0.00,,,-99.99,0.0,Linux-Irox,2013-07-16 14:06:00,
2013-07-16 07:16:00,76.1,41.9,29.46,North,-999,-999.0,-999.0,5,0.00,,,-99.99,0.0,Linux-Irox,2013-07-16 14:16:00,
2013-07-16 07:26:00,78.8,44.6,29.46,North,-999,-999.0,-999.0,5,0.00,,,-99.99,0.0,Linux-Irox,2013-07-16 14:26:00,
2013-07-16 07:31:00,79.2,45.0,29.46,North,-999,-999.0,-999.0,5,0.00,,,-99.99,0.0,Linux-Irox,2013-07-16 14:31:00,
2013-07-16 07:36:00,79.5,45.3,29.46,North,-999,-999.0,-999.0,5,0.03,,,-99.99,0.0,Linux-Irox,2013-07-16 14:36:00,
2013-07-16 07:46:00,82.4,48.2,29.46,North,-999,-999.0,-999.0,5,0.03,,,-99.99,0.0,Linux-Irox,2013-07-16 14:46:00,
2013-07-16 07:56:00,79.7,45.5,29.46,North,-999,-999.0,-999.0,5,0.03,,,-99.99,0.0,Linux-Irox,2013-07-16 14:56:00,
2013-07-16 08:01:00,78.3,44.1,29.47,North,-999,-999.0,-999.0,5,0.03,,,-99.99,0.0,Linux-Irox,2013-07-16 15:01:00,
2013-07-16 08:06:00,78.1,43.9,29.47,North,-999,-999.0,-999.0,5,0.03,,,-99.99,0.0,Linux-Irox,2013-07-16 15:06:00,
2013-07-16 08:16:00,78.3,44.1,29.47,North,-999,-999.0,-999.0,5,0.03,,,-99.99,0.0,Linux-Irox,2013-07-16 15:16:00,
2013-07-16 08:26:00,79.5,45.3,29.48,North,-999,-999.0,-999.0,5,0.03,,,-99.99,0.0,Linux-Irox,2013-07-16 15:26:00,
2013-07-16 08:31:00,80.1,45.9,29.48,North,-999,-999.0,-999.0,5,0.03,,,-99.99,0.0,Linux-Irox,2013-07-16 15:31:00,
2013-07-16 08:36:00,81.1,46.9,29.48,North,-999,-999.0,-999.0,5,0.03,,,-99.99,0.0,Linux-Irox,2013-07-16 15:36:00,
2013-07-16 08:46:00,82.9,48.7,29.47,North,-999,-999.0,-999.0,5,0.00,,,-99.99,0.0,Linux-Irox,2013-07-16 15:46:00,
2013-07-16 08:56:00,84.0,49.8,29.47,North,-999,-999.0,-999.0,5,0.00,,,-99.99,0.0,Linux-Irox,2013-07-16 15:56:00,
2013-07-16 09:01:00,84.0,49.8,29.48,North,-999,-999.0,-999.0,5,0.00,,,-99.99,0.0,Linux-Irox,2013-07-16 16:01:00,
2013-07-16 09:06:00,84.7,50.5,29.48,North,-999,-999.0,-999.0,5,0.00,,,-99.99,0.0,Linux-Irox,2013-07-16 16:06:00,
2013-07-16 09:16:00,85.8,51.6,29.48,North,-999,-999.0,-999.0,5,0.00,,,-99.99,0.0,Linux-Irox,2013-07-16 16:16:00,
2013-07-16 09:26:00,86.4,52.2,29.49,North,-999,-999.0,-999.0,5,0.00,,,-99.99,0.0,Linux-Irox,2013-07-16 16:26:00,
2013-07-16 09:31:00,85.3,51.1,29.49,North,-999,-999.0,-999.0,5,0.00,,,-99.99,0.0,Linux-Irox,2013-07-16 16:31:00,
2013-07-16 09:36:00,85.6,51.4,29.49,North,-999,-999.0,-999.0,5,0.00,,,-99.99,0.0,Linux-Irox,2013-07-16 16:36:00,
2013-07-16 09:46:00,86.9,52.7,29.48,North,-999,-999.0,-999.0,5,0.00,,,-99.99,0.0,Linux-Irox,2013-07-16 16:46:00,
2013-07-16 09:56:00,85.8,51.6,29.48,North,-999,-999.0,-999.0,5,0.00,,,-99.99,0.0,Linux-Irox,2013-07-16 16:56:00,
2013-07-16 10:01:00,85.1,50.9,29.48,North,-999,-999.0,-999.0,5,0.00,,,-99.99,0.0,Linux-Irox,2013-07-16 17:01:00,
2013-07-16 10:06:00,84.7,50.5,29.48,North,-999,-999.0,-999.0,5,0.00,,,-99.99,0.0,Linux-Irox,2013-07-16 17:06:00,
2013-07-16 10:16:00,85.3,51.1,29.48,North,-999,-999.0,-999.0,5,0.00,,,-99.99,0.0,Linux-Irox,2013-07-16 17:16:00,
2013-07-16 10:26:00,87.1,52.9,29.49,North,-999,-999.0,-999.0,5,0.00,,,-99.99,0.0,Linux-Irox,2013-07-16 17:26:00,
2013-07-16 10:31:00,87.1,52.9,29.49,North,-999,-999.0,-999.0,5,0.00,,,-99.99,0.0,Linux-Irox,2013-07-16 17:31:00,
2013-07-16 10:36:00,87.4,53.2,29.49,North,-999,-999.0,-999.0,5,0.00,,,-99.99,0.0,Linux-Irox,2013-07-16 17:36:00,
2013-07-16 10:46:00,86.7,52.5,29.49,North,-999,-999.0,-999.0,5,0.00,,,-99.99,0.0,Linux-Irox,2013-07-16 17:46:00,
2013-07-16 10:56:00,85.8,51.6,29.49,North,-999,-999.0,-999.0,5,0.00,,,-99.99,0.0,Linux-Irox,2013-07-16 17:56:00,
2013-07-16 11:01:00,86.4,52.2,29.49,North,-999,-999.0,-999.0,5,0.00,,,-99.99,0.0,Linux-Irox,2013-07-16 18:01:00,
2013-07-16 11:06:00,85.8,51.6,29.49,North,-999,-999.0,-999.0,5,0.00,,,-99.99,0.0,Linux-Irox,2013-07-16 18:06:00,
2013-07-16 11:16:00,86.2,52.0,29.49,North,-999,-999.0,-999.0,5,0.00,,,-99.99,0.0,Linux-Irox,2013-07-16 18:16:00,
2013-07-16 11:26:00,86.4,52.2,29.50,North,-999,-999.0,-999.0,5,0.00,,,-99.99,0.0,Linux-Irox,2013-07-16 18:26:00,
2013-07-16 11:31:00,86.4,52.2,29.50,North,-999,-999.0,-999.0,5,0.00,,,-99.99,0.0,Linux-Irox,2013-07-16 18:31:00,
2013-07-16 11:36:00,86.5,52.3,29.50,North,-999,-999.0,-999.0,5,0.00,,,-99.99,0.0,Linux-Irox,2013-07-16 18:36:00,
2013-07-16 11:46:00,86.5,52.3,29.50,North,-999,-999.0,-999.0,5,0.00,,,-99.99,0.0,Linux-Irox,2013-07-16 18:46:00,
2013-07-16 11:56:00,86.2,52.0,29.50,North,-999,-999.0,-999.0,5,0.00,,,-99.99,0.0,Linux-Irox,2013-07-16 18:56:00,
2013-07-16 12:01:00,86.0,51.8,29.49,North,-999,-999.0,-999.0,5,0.00,,,-99.99,0.0,Linux-Irox,2013-07-16 19:01:00,
2013-07-16 12:06:00,86.0,51.8,29.49,North,-999,-999.0,-999.0,5,0.00,,,-99.99,0.0,Linux-Irox,2013-07-16 19:06:00,
2013-07-16 12:16:00,85.5,51.3,29.49,North,-999,-999.0,-999.0,5,0.00,,,-99.99,0.0,Linux-Irox,2013-07-16 19:16:00,
2013-07-16 12:26:00,85.8,51.6,29.50,North,-999,-999.0,-999.0,5,0.00,,,-99.99,0.0,Linux-Irox,2013-07-16 19:26:00,
2013-07-16 12:31:00,85.1,50.9,29.50,North,-999,-999.0,-999.0,5,0.00,,,-99.99,0.0,Linux-Irox,2013-07-16 19:31:00,
2013-07-16 12:36:00,84.6,50.4,29.50,North,-999,-999.0,-999.0,5,0.00,,,-99.99,0.0,Linux-Irox,2013-07-16 19:36:00,
2013-07-16 12:46:00,84.6,50.4,29.50,North,-999,-999.0,-999.0,5,0.00,,,-99.99,0.0,Linux-Irox,2013-07-16 19:46:00,
2013-07-16 12:56:00,84.6,50.4,29.50,North,-999,-999.0,-999.0,5,0.00,,,-99.99,0.0,Linux-Irox,2013-07-16 19:56:00,
2013-07-16 13:01:00,84.2,50.0,29.51,North,-999,-999.0,-999.0,5,0.00,,,-99.99,0.0,Linux-Irox,2013-07-16 20:01:00,
2013-07-16 13:06:00,84.9,50.7,29.51,North,-999,-999.0,-999.0,5,0.00,,,-99.99,0.0,Linux-Irox,2013-07-16 20:06:00,
2013-07-16 13:16:00,84.6,50.4,29.51,North,-999,-999.0,-999.0,5,0.00,,,-99.99,0.0,Linux-Irox,2013-07-16 20:16:00,
2013-07-16 13:26:00,84.2,50.0,29.51,North,-999,-999.0,-999.0,5,0.00,,,-99.99,0.0,Linux-Irox,2013-07-16 20:26:00,
2013-07-16 13:31:00,84.0,49.8,29.51,North,-999,-999.0,-999.0,5,0.00,,,-99.99,0.0,Linux-Irox,2013-07-16 20:31:00,
2013-07-16 13:36:00,84.0,49.8,29.51,North,-999,-999.0,-999.0,5,0.00,,,-99.99,0.0,Linux-Irox,2013-07-16 20:36:00,
2013-07-16 13:46:00,84.7,50.5,29.51,North,-999,-999.0,-999.0,5,0.00,,,-99.99,0.0,Linux-Irox,2013-07-16 20:46:00,
2013-07-16 13:56:00,84.2,50.0,29.51,North,-999,-999.0,-999.0,5,0.00,,,-99.99,0.0,Linux-Irox,2013-07-16 20:56:00,
2013-07-16 14:01:00,84.2,50.0,29.51,North,-999,-999.0,-999.0,5,0.00,,,-99.99,0.0,Linux-Irox,2013-07-16 21:01:00,
2013-07-16 14:06:00,84.6,50.4,29.51,North,-999,-999.0,-999.0,5,0.00,,,-99.99,0.0,Linux-Irox,2013-07-16 21:06:00,
2013-07-16 14:16:00,85.1,50.9,29.51,North,-999,-999.0,-999.0,5,0.00,,,-99.99,0.0,Linux-Irox,2013-07-16 21:16:00,
2013-07-16 14:26:00,85.5,51.3,29.51,North,-999,-999.0,-999.0,5,0.00,,,-99.99,0.0,Linux-Irox,2013-07-16 21:26:00,
2013-07-16 14:31:00,85.6,51.4,29.51,North,-999,-999.0,-999.0,5,0.00,,,-99.99,0.0,Linux-Irox,2013-07-16 21:31:00,
2013-07-16 14:36:00,86.2,52.0,29.51,North,-999,-999.0,-999.0,5,0.00,,,-99.99,0.0,Linux-Irox,2013-07-16 21:36:00,
2013-07-16 14:46:00,85.5,51.3,29.51,North,-999,-999.0,-999.0,5,0.00,,,-99.99,0.0,Linux-Irox,2013-07-16 21:46:00,
2013-07-16 14:56:00,86.7,52.5,29.51,North,-999,-999.0,-999.0,5,0.00,,,-99.99,0.0,Linux-Irox,2013-07-16 21:56:00,
2013-07-16 15:01:00,86.4,52.2,29.50,North,-999,-999.0,-999.0,5,0.00,,,-99.99,0.0,Linux-Irox,2013-07-16 22:01:00,
2013-07-16 15:06:00,86.9,52.7,29.50,North,-999,-999.0,-999.0,5,0.00,,,-99.99,0.0,Linux-Irox,2013-07-16 22:06:00,
2013-07-16 15:16:00,87.3,53.1,29.50,North,-999,-999.0,-999.0,5,0.00,,,-99.99,0.0,Linux-Irox,2013-07-16 22:16:00,
2013-07-16 15:26:00,87.6,53.4,29.51,North,-999,-999.0,-999.0,5,0.00,,,-99.99,0.0,Linux-Irox,2013-07-16 22:26:00,
2013-07-16 15:31:00,87.6,53.4,29.51,North,-999,-999.0,-999.0,5,0.00,,,-99.99,0.0,Linux-Irox,2013-07-16 22:31:00,
2013-07-16 15:36:00,87.6,53.4,29.51,North,-999,-999.0,-999.0,5,0.00,,,-99.99,0.0,Linux-Irox,2013-07-16 22:36:00,
2013-07-16 15:46:00,86.5,52.3,29.51,North,-999,-999.0,-999.0,5,0.00,,,-99.99,0.0,Linux-Irox,2013-07-16 22:46:00,
2013-07-16 15:56:00,86.4,52.2,29.51,North,-999,-999.0,-999.0,5,0.00,,,-99.99,0.0,Linux-Irox,2013-07-16 22:56:00,
2013-07-16 16:01:00,86.5,52.3,29.47,North,-999,-999.0,-999.0,5,0.00,,,-99.99,0.0,Linux-Irox,2013-07-16 23:01:00,
2013-07-16 16:06:00,86.0,51.8,29.47,North,-999,-999.0,-999.0,5,0.00,,,-99.99,0.0,Linux-Irox,2013-07-16 23:06:00,
2013-07-16 16:16:00,85.3,51.1,29.47,North,-999,-999.0,-999.0,5,0.00,,,-99.99,0.0,Linux-Irox,2013-07-16 23:16:00,
2013-07-16 16:26:00,85.5,51.3,29.49,North,-999,-999.0,-999.0,5,0.00,,,-99.99,0.0,Linux-Irox,2013-07-16 23:26:00,
2013-07-16 16:31:00,85.3,51.1,29.49,North,-999,-999.0,-999.0,5,0.00,,,-99.99,0.0,Linux-Irox,2013-07-16 23:31:00,
2013-07-16 16:36:00,85.6,51.4,29.49,North,-999,-999.0,-999.0,5,0.00,,,-99.99,0.0,Linux-Irox,2013-07-16 23:36:00,
2013-07-16 16:46:00,84.6,50.4,29.50,North,-999,-999.0,-999.0,5,0.00,,,-99.99,0.0,Linux-Irox,2013-07-16 23:46:00,
2013-07-16 16:56:00,84.4,50.2,29.50,North,-999,-999.0,-999.0,5,0.00,,,-99.99,0.0,Linux-Irox,2013-07-16 23:56:00,
2013-07-16 17:01:00,84.6,50.4,29.49,North,-999,-999.0,-999.0,5,0.00,,,-99.99,0.0,Linux-Irox,2013-07-17 00:01:00,
2013-07-16 17:06:00,84.2,50.0,29.49,North,-999,-999.0,-999.0,5,0.00,,,-99.99,0.0,Linux-Irox,2013-07-17 00:06:00,
2013-07-16 17:16:00,83.8,49.6,29.49,North,-999,-999.0,-999.0,5,0.00,,,-99.99,0.0,Linux-Irox,2013-07-17 00:16:00,
2013-07-16 17:26:00,83.1,48.9,29.50,North,-999,-999.0,-999.0,5,0.00,,,-99.99,0.0,Linux-Irox,2013-07-17 00:26:00,
2013-07-16 17:31:00,83.1,48.9,29.50,North,-999,-999.0,-999.0,5,0.00,,,-99.99,0.0,Linux-Irox,2013-07-17 00:31:00,
2013-07-16 17:36:00,82.6,48.4,29.50,North,-999,-999.0,-999.0,5,0.00,,,-99.99,0.0,Linux-Irox,2013-07-17 00:36:00,
2013-07-16 17:46:00,81.9,47.7,29.48,North,-999,-999.0,-999.0,5,0.00,,,-99.99,0.0,Linux-Irox,2013-07-17 00:46:00,
2013-07-16 17:56:00,81.3,47.1,29.48,North,-999,-999.0,-999.0,5,0.00,,,-99.99,0.0,Linux-Irox,2013-07-17 00:56:00,
2013-07-16 18:01:00,81.0,46.8,29.49,North,-999,-999.0,-999.0,5,0.00,,,-99.99,0.0,Linux-Irox,2013-07-17 01:01:00,
2013-07-16 18:06:00,80.6,46.4,29.49,North,-999,-999.0,-999.0,5,0.00,,,-99.99,0.0,Linux-Irox,2013-07-17 01:06:00,
2013-07-16 18:16:00,80.2,46.0,29.49,North,-999,-999.0,-999.0,5,0.00,,,-99.99,0.0,Linux-Irox,2013-07-17 01:16:00,
2013-07-16 18:26:00,79.9,45.7,29.49,North,-999,-999.0,-999.0,5,0.00,,,-99.99,0.0,Linux-Irox,2013-07-17 01:26:00,
2013-07-16 18:31:00,79.9,45.7,29.49,North,-999,-999.0,-999.0,5,0.00,,,-99.99,0.0,Linux-Irox,2013-07-17 01:31:00,
2013-07-16 18:36:00,79.7,45.5,29.49,North,-999,-999.0,-999.0,5,0.00,,,-99.99,0.0,Linux-Irox,2013-07-17 01:36:00,
2013-07-16 18:46:00,79.0,44.8,29.49,North,-999,-999.0,-999.0,5,0.00,,,-99.99,0.0,Linux-Irox,2013-07-17 01:46:00,
2013-07-16 18:56:00,79.0,44.8,29.49,North,-999,-999.0,-999.0,5,0.00,,,-99.99,0.0,Linux-Irox,2013-07-17 01:56:00,
2013-07-16 19:01:00,78.6,44.4,29.49,North,-999,-999.0,-999.0,5,0.00,,,-99.99,0.0,Linux-Irox,2013-07-17 02:01:00,
2013-07-16 19:06:00,78.1,43.9,29.49,North,-999,-999.0,-999.0,5,0.00,,,-99.99,0.0,Linux-Irox,2013-07-17 02:06:00,
2013-07-16 19:16:00,77.2,43.0,29.49,North,-999,-999.0,-999.0,5,0.00,,,-99.99,0.0,Linux-Irox,2013-07-17 02:16:00,
2013-07-16 19:26:00,75.4,41.2,29.51,North,-999,-999.0,-999.0,5,0.00,,,-99.99,0.0,Linux-Irox,2013-07-17 02:26:00,
2013-07-16 19:31:00,74.8,40.6,29.51,North,-999,-999.0,-999.0,5,0.00,,,-99.99,0.0,Linux-Irox,2013-07-17 02:31:00,
2013-07-16 19:36:00,74.1,39.9,29.51,North,-999,-999.0,-999.0,5,0.00,,,-99.99,0.0,Linux-Irox,2013-07-17 02:36:00,
2013-07-16 19:46:00,73.2,39.0,29.52,North,-999,-999.0,-999.0,5,0.00,,,-99.99,0.0,Linux-Irox,2013-07-17 02:46:00,
2013-07-16 19:56:00,72.1,37.9,29.52,North,-999,-999.0,-999.0,5,0.00,,,-99.99,0.0,Linux-Irox,2013-07-17 02:56:00,
2013-07-16 20:01:00,71.8,37.6,29.53,North,-999,-999.0,-999.0,5,0.00,,,-99.99,0.0,Linux-Irox,2013-07-17 03:01:00,
2013-07-16 20:06:00,71.1,36.9,29.53,North,-999,-999.0,-999.0,5,0.00,,,-99.99,0.0,Linux-Irox,2013-07-17 03:06:00,
2013-07-16 20:16:00,70.2,36.0,29.53,North,-999,-999.0,-999.0,5,0.00,,,-99.99,0.0,Linux-Irox,2013-07-17 03:16:00,
2013-07-16 20:26:00,69.3,35.1,29.53,North,-999,-999.0,-999.0,5,0.00,,,-99.99,0.0,Linux-Irox,2013-07-17 03:26:00,
2013-07-16 20:36:00,68.2,34.0,29.53,North,-999,-999.0,-999.0,5,0.00,,,-99.99,0.0,Linux-Irox,2013-07-17 03:36:00,
2013-07-16 20:46:00,67.3,33.1,29.54,North,-999,-999.0,-999.0,5,0.00,,,-99.99,0.0,Linux-Irox,2013-07-17 03:46:00,
2013-07-16 20:56:00,66.4,32.2,29.54,North,-999,-999.0,-999.0,5,0.00,,,-99.99,0.0,Linux-Irox,2013-07-17 03:56:00,
2013-07-16 21:06:00,65.8,31.6,29.54,North,-999,-999.0,-999.0,5,0.00,,,-99.99,0.0,Linux-Irox,2013-07-17 04:06:00,
2013-07-16 21:16:00,65.5,31.3,29.54,North,-999,-999.0,-999.0,5,0.00,,,-99.99,0.0,Linux-Irox,2013-07-17 04:16:00,
2013-07-16 21:26:00,64.9,30.7,29.55,North,-999,-999.0,-999.0,5,0.00,,,-99.99,0.0,Linux-Irox,2013-07-17 04:26:00,
2013-07-16 21:36:00,64.4,30.2,29.55,North,-999,-999.0,-999.0,5,0.00,,,-99.99,0.0,Linux-Irox,2013-07-17 04:36:00,
2013-07-16 21:46:00,64.0,29.8,29.56,North,-999,-999.0,-999.0,5,0.00,,,-99.99,0.0,Linux-Irox,2013-07-17 04:46:00,
2013-07-16 21:56:00,63.9,29.7,29.56,North,-999,-999.0,-999.0,5,0.00,,,-99.99,0.0,Linux-Irox,2013-07-17 04:56:00,
2013-07-16 22:06:00,63.3,29.1,29.56,North,-999,-999.0,-999.0,5,0.00,,,-99.99,0.0,Linux-Irox,2013-07-17 05:06:00,
2013-07-16 22:16:00,62.8,28.6,29.56,North,-999,-999.0,-999.0,5,0.00,,,-99.99,0.0,Linux-Irox,2013-07-17 05:16:00,
2013-07-16 22:26:00,62.4,28.2,29.58,North,-999,-999.0,-999.0,5,0.00,,,-99.99,0.0,Linux-Irox,2013-07-17 05:26:00,
2013-07-16 22:36:00,62.1,27.9,29.58,North,-999,-999.0,-999.0,5,0.00,,,-99.99,0.0,Linux-Irox,2013-07-17 05:36:00,
2013-07-16 22:46:00,61.7,27.5,29.58,North,-999,-999.0,-999.0,5,0.00,,,-99.99,0.0,Linux-Irox,2013-07-17 05:46:00,
2013-07-16 22:56:00,61.5,27.3,29.58,North,-999,-999.0,-999.0,5,0.00,,,-99.99,0.0,Linux-Irox,2013-07-17 05:56:00,
2013-07-16 23:06:00,61.3,27.1,29.57,North,-999,-999.0,-999.0,5,0.00,,,-99.99,0.0,Linux-Irox,2013-07-17 06:06:00,
2013-07-16 23:16:00,61.0,26.8,29.57,North,-999,-999.0,-999.0,5,0.00,,,-99.99,0.0,Linux-Irox,2013-07-17 06:16:00,
2013-07-16 23:26:00,60.6,26.4,29.56,North,-999,-999.0,-999.0,5,0.00,,,-99.99,0.0,Linux-Irox,2013-07-17 06:26:00,
2013-07-16 23:36:00,60.3,26.1,29.56,North,-999,-999.0,-999.0,5,0.00,,,-99.99,0.0,Linux-Irox,2013-07-17 06:36:00,
2013-07-16 23:46:00,60.4,26.2,29.56,North,-999,-999.0,-999.0,5,0.00,,,-99.99,0.0,Linux-Irox,2013-07-17 06:46:00,
2013-07-16 23:56:00,60.3,26.1,29.56,North,-999,-999.0,-999.0,5,0.00,,,-99.99,0.0,Linux-Irox,2013-07-17 06:56:00,